sensor_id;sensor_type;location;lat;lon;timestamp;temperature;humidity
21335;DHT22;69435;52.670;13.544;2023-10-08T00:01:04;13.80;73.10
21335;DHT22;69435;52.670;13.544;2023-10-08T00:03:53;13.80;73.10
21335;DHT22;69435;52.670;13.544;2023-10-08T00:06:43;13.80;73.10
21335;DHT22;69435;52.670;13.544;2023-10-08T00:09:31;13.80;73.10
21335;DHT22;69435;52.670;13.544;2023-10-08T00:12:21;13.80;73.10
21335;DHT22;69435;52.670;13.544;2023-10-08T00:15:07;13.80;73.10
21335;DHT22;69435;52.670;13.544;2023-10-08T00:17:56;13.80;73.20
21335;DHT22;69435;52.670;13.544;2023-10-08T00:20:44;13.80;73.30
21335;DHT22;69435;52.670;13.544;2023-10-08T00:23:40;13.80;73.40
21335;DHT22;69435;52.670;13.544;2023-10-08T00:26:45;13.80;73.40
21335;DHT22;69435;52.670;13.544;2023-10-08T00:29:31;13.70;73.40
21335;DHT22;69435;52.670;13.544;2023-10-08T00:32:18;13.70;73.30
21335;DHT22;69435;52.670;13.544;2023-10-08T00:35:04;13.80;73.40
21335;DHT22;69435;52.670;13.544;2023-10-08T00:37:51;13.80;73.50
21335;DHT22;69435;52.670;13.544;2023-10-08T00:40:40;13.80;73.50
21335;DHT22;69435;52.670;13.544;2023-10-08T00:43:35;13.80;73.50
21335;DHT22;69435;52.670;13.544;2023-10-08T00:46:21;13.80;73.50
21335;DHT22;69435;52.670;13.544;2023-10-08T00:49:09;13.80;73.70
21335;DHT22;69435;52.670;13.544;2023-10-08T00:52:09;13.90;73.80
21335;DHT22;69435;52.670;13.544;2023-10-08T00:54:58;13.80;73.50
21335;DHT22;69435;52.670;13.544;2023-10-08T00:57:52;13.90;73.50
21335;DHT22;69435;52.670;13.544;2023-10-08T01:00:43;13.80;73.40
21335;DHT22;69435;52.670;13.544;2023-10-08T01:03:32;13.90;73.50
21335;DHT22;69435;52.670;13.544;2023-10-08T01:06:21;13.90;73.50
21335;DHT22;69435;52.670;13.544;2023-10-08T01:09:09;13.90;73.50
21335;DHT22;69435;52.670;13.544;2023-10-08T01:12:08;13.90;73.50
21335;DHT22;69435;52.670;13.544;2023-10-08T01:14:57;13.90;73.40
21335;DHT22;69435;52.670;13.544;2023-10-08T01:17:50;13.90;73.30
21335;DHT22;69435;52.670;13.544;2023-10-08T01:20:46;13.90;73.30
21335;DHT22;69435;52.670;13.544;2023-10-08T01:23:38;13.90;73.20
21335;DHT22;69435;52.670;13.544;2023-10-08T01:26:24;13.90;73.10
21335;DHT22;69435;52.670;13.544;2023-10-08T01:29:11;13.80;73.00
21335;DHT22;69435;52.670;13.544;2023-10-08T01:32:04;13.80;73.10
21335;DHT22;69435;52.670;13.544;2023-10-08T01:34:56;13.80;73.10
21335;DHT22;69435;52.670;13.544;2023-10-08T01:37:45;13.70;73.30
21335;DHT22;69435;52.670;13.544;2023-10-08T01:40:34;13.70;73.30
21335;DHT22;69435;52.670;13.544;2023-10-08T01:43:20;13.70;73.40
21335;DHT22;69435;52.670;13.544;2023-10-08T01:46:06;13.70;73.40
21335;DHT22;69435;52.670;13.544;2023-10-08T01:48:57;13.70;73.50
21335;DHT22;69435;52.670;13.544;2023-10-08T01:51:50;13.70;73.40
21335;DHT22;69435;52.670;13.544;2023-10-08T01:54:36;13.70;73.40
21335;DHT22;69435;52.670;13.544;2023-10-08T01:57:23;13.70;73.60
21335;DHT22;69435;52.670;13.544;2023-10-08T02:00:09;13.70;73.60
21335;DHT22;69435;52.670;13.544;2023-10-08T02:02:55;13.70;73.60
21335;DHT22;69435;52.670;13.544;2023-10-08T02:05:44;13.60;73.20
21335;DHT22;69435;52.670;13.544;2023-10-08T02:08:31;13.60;74.10
21335;DHT22;69435;52.670;13.544;2023-10-08T02:11:17;13.70;73.60
21335;DHT22;69435;52.670;13.544;2023-10-08T02:14:05;13.60;73.50
21335;DHT22;69435;52.670;13.544;2023-10-08T02:16:52;13.70;73.70
21335;DHT22;69435;52.670;13.544;2023-10-08T02:19:41;13.70;73.80
21335;DHT22;69435;52.670;13.544;2023-10-08T02:22:27;13.70;73.70
21335;DHT22;69435;52.670;13.544;2023-10-08T02:25:15;13.70;74.50
21335;DHT22;69435;52.670;13.544;2023-10-08T02:28:03;13.80;73.50
21335;DHT22;69435;52.670;13.544;2023-10-08T02:30:49;13.70;73.50
21335;DHT22;69435;52.670;13.544;2023-10-08T02:33:35;13.70;73.60
21335;DHT22;69435;52.670;13.544;2023-10-08T02:36:21;13.70;73.50
21335;DHT22;69435;52.670;13.544;2023-10-08T02:39:08;13.70;73.70
21335;DHT22;69435;52.670;13.544;2023-10-08T02:42:06;13.70;73.70
21335;DHT22;69435;52.670;13.544;2023-10-08T02:44:56;13.60;73.70
21335;DHT22;69435;52.670;13.544;2023-10-08T02:47:46;13.60;73.60
21335;DHT22;69435;52.670;13.544;2023-10-08T02:50:32;13.60;73.70
21335;DHT22;69435;52.670;13.544;2023-10-08T02:53:18;13.60;73.80
21335;DHT22;69435;52.670;13.544;2023-10-08T02:56:06;13.70;73.80
21335;DHT22;69435;52.670;13.544;2023-10-08T02:58:59;13.70;73.70
21335;DHT22;69435;52.670;13.544;2023-10-08T03:01:45;13.70;73.50
21335;DHT22;69435;52.670;13.544;2023-10-08T03:04:33;13.70;73.50
21335;DHT22;69435;52.670;13.544;2023-10-08T03:07:21;13.70;73.40
21335;DHT22;69435;52.670;13.544;2023-10-08T03:10:08;13.70;73.40
21335;DHT22;69435;52.670;13.544;2023-10-08T03:13:17;13.70;73.40
21335;DHT22;69435;52.670;13.544;2023-10-08T03:16:04;13.70;73.40
21335;DHT22;69435;52.670;13.544;2023-10-08T03:18:58;13.70;73.40
21335;DHT22;69435;52.670;13.544;2023-10-08T03:21:48;13.70;73.30
21335;DHT22;69435;52.670;13.544;2023-10-08T03:24:36;13.70;73.20
21335;DHT22;69435;52.670;13.544;2023-10-08T03:27:22;13.70;73.20
21335;DHT22;69435;52.670;13.544;2023-10-08T03:30:11;13.60;73.20
21335;DHT22;69435;52.670;13.544;2023-10-08T03:33:01;13.60;73.10
21335;DHT22;69435;52.670;13.544;2023-10-08T03:35:51;13.60;73.10
21335;DHT22;69435;52.670;13.544;2023-10-08T03:38:41;13.60;73.00
21335;DHT22;69435;52.670;13.544;2023-10-08T03:41:36;13.50;72.80
21335;DHT22;69435;52.670;13.544;2023-10-08T03:44:25;13.50;72.90
21335;DHT22;69435;52.670;13.544;2023-10-08T03:47:15;13.50;72.90
21335;DHT22;69435;52.670;13.544;2023-10-08T03:50:07;13.40;72.70
21335;DHT22;69435;52.670;13.544;2023-10-08T03:52:55;13.40;72.70
21335;DHT22;69435;52.670;13.544;2023-10-08T03:55:41;13.40;72.80
21335;DHT22;69435;52.670;13.544;2023-10-08T03:58:27;13.30;72.80
21335;DHT22;69435;52.670;13.544;2023-10-08T04:01:14;13.30;72.80
21335;DHT22;69435;52.670;13.544;2023-10-08T04:04:05;13.30;72.90
21335;DHT22;69435;52.670;13.544;2023-10-08T04:06:57;13.20;72.80
21335;DHT22;69435;52.670;13.544;2023-10-08T04:10:04;13.20;72.90
21335;DHT22;69435;52.670;13.544;2023-10-08T04:12:55;13.30;73.10
21335;DHT22;69435;52.670;13.544;2023-10-08T04:15:42;13.20;72.90
21335;DHT22;69435;52.670;13.544;2023-10-08T04:18:28;13.20;72.80
21335;DHT22;69435;52.670;13.544;2023-10-08T04:21:14;13.20;72.90
21335;DHT22;69435;52.670;13.544;2023-10-08T04:24:02;13.20;72.80
21335;DHT22;69435;52.670;13.544;2023-10-08T04:26:51;13.10;72.80
21335;DHT22;69435;52.670;13.544;2023-10-08T04:29:37;13.10;72.70
21335;DHT22;69435;52.670;13.544;2023-10-08T04:32:27;13.10;72.70
21335;DHT22;69435;52.670;13.544;2023-10-08T04:35:17;13.00;72.50
21335;DHT22;69435;52.670;13.544;2023-10-08T04:38:04;13.00;72.50
21335;DHT22;69435;52.670;13.544;2023-10-08T04:40:54;12.90;72.50
21335;DHT22;69435;52.670;13.544;2023-10-08T04:43:47;12.90;72.50
21335;DHT22;69435;52.670;13.544;2023-10-08T04:46:35;12.80;72.40
21335;DHT22;69435;52.670;13.544;2023-10-08T04:49:23;12.70;72.20
21335;DHT22;69435;52.670;13.544;2023-10-08T04:52:13;12.70;72.30
21335;DHT22;69435;52.670;13.544;2023-10-08T04:55:04;12.60;72.20
21335;DHT22;69435;52.670;13.544;2023-10-08T04:58:01;12.50;72.20
21335;DHT22;69435;52.670;13.544;2023-10-08T05:00:57;12.40;72.10
21335;DHT22;69435;52.670;13.544;2023-10-08T05:03:50;12.40;72.10
21335;DHT22;69435;52.670;13.544;2023-10-08T05:06:42;12.30;72.00
21335;DHT22;69435;52.670;13.544;2023-10-08T05:09:31;12.20;71.90
21335;DHT22;69435;52.670;13.544;2023-10-08T05:12:36;12.20;71.90
21335;DHT22;69435;52.670;13.544;2023-10-08T05:15:45;12.10;71.90
21335;DHT22;69435;52.670;13.544;2023-10-08T05:18:52;12.00;71.80
21335;DHT22;69435;52.670;13.544;2023-10-08T05:21:59;12.00;71.80
21335;DHT22;69435;52.670;13.544;2023-10-08T05:25:03;11.90;71.90
21335;DHT22;69435;52.670;13.544;2023-10-08T05:28:01;11.90;71.90
21335;DHT22;69435;52.670;13.544;2023-10-08T05:30:55;11.80;71.80
21335;DHT22;69435;52.670;13.544;2023-10-08T05:33:59;11.80;71.90
21335;DHT22;69435;52.670;13.544;2023-10-08T05:37:00;11.70;71.90
21335;DHT22;69435;52.670;13.544;2023-10-08T05:39:46;11.70;71.90
21335;DHT22;69435;52.670;13.544;2023-10-08T05:42:41;11.70;72.00
21335;DHT22;69435;52.670;13.544;2023-10-08T05:45:32;11.60;71.90
21335;DHT22;69435;52.670;13.544;2023-10-08T05:48:20;11.60;71.90
21335;DHT22;69435;52.670;13.544;2023-10-08T05:51:13;11.50;71.90
21335;DHT22;69435;52.670;13.544;2023-10-08T05:54:11;11.50;71.90
21335;DHT22;69435;52.670;13.544;2023-10-08T05:57:18;11.50;72.00
21335;DHT22;69435;52.670;13.544;2023-10-08T06:00:24;11.50;72.00
21335;DHT22;69435;52.670;13.544;2023-10-08T06:03:32;11.50;72.00
21335;DHT22;69435;52.670;13.544;2023-10-08T06:06:18;11.50;72.10
21335;DHT22;69435;52.670;13.544;2023-10-08T06:09:04;11.50;72.10
21335;DHT22;69435;52.670;13.544;2023-10-08T06:12:06;11.50;72.20
21335;DHT22;69435;52.670;13.544;2023-10-08T06:14:55;11.60;72.20
21335;DHT22;69435;52.670;13.544;2023-10-08T06:17:54;11.60;72.20
21335;DHT22;69435;52.670;13.544;2023-10-08T06:20:49;11.70;72.30
21335;DHT22;69435;52.670;13.544;2023-10-08T06:23:41;11.70;72.40
21335;DHT22;69435;52.670;13.544;2023-10-08T06:26:28;11.80;72.50
21335;DHT22;69435;52.670;13.544;2023-10-08T06:29:19;11.80;72.60
21335;DHT22;69435;52.670;13.544;2023-10-08T06:32:12;11.90;72.80
21335;DHT22;69435;52.670;13.544;2023-10-08T06:34:58;11.90;72.80
21335;DHT22;69435;52.670;13.544;2023-10-08T06:37:48;12.00;73.00
21335;DHT22;69435;52.670;13.544;2023-10-08T06:40:36;12.10;73.10
21335;DHT22;69435;52.670;13.544;2023-10-08T06:43:22;12.20;73.00
21335;DHT22;69435;52.670;13.544;2023-10-08T06:46:10;12.20;73.20
21335;DHT22;69435;52.670;13.544;2023-10-08T06:48:59;12.40;73.60
21335;DHT22;69435;52.670;13.544;2023-10-08T06:51:45;12.80;74.70
21335;DHT22;69435;52.670;13.544;2023-10-08T06:54:31;13.40;75.80
21335;DHT22;69435;52.670;13.544;2023-10-08T06:57:17;14.10;76.60
21335;DHT22;69435;52.670;13.544;2023-10-08T07:00:06;14.90;77.00
21335;DHT22;69435;52.670;13.544;2023-10-08T07:02:58;15.80;76.60
21335;DHT22;69435;52.670;13.544;2023-10-08T07:05:46;16.80;76.00
21335;DHT22;69435;52.670;13.544;2023-10-08T07:08:44;17.70;73.90
21335;DHT22;69435;52.670;13.544;2023-10-08T07:11:36;18.60;71.20
21335;DHT22;69435;52.670;13.544;2023-10-08T07:14:26;19.40;68.20
21335;DHT22;69435;52.670;13.544;2023-10-08T07:17:13;20.20;65.20
21335;DHT22;69435;52.670;13.544;2023-10-08T07:20:06;20.90;61.20
21335;DHT22;69435;52.670;13.544;2023-10-08T07:22:59;21.60;58.60
21335;DHT22;69435;52.670;13.544;2023-10-08T07:25:58;22.30;56.20
21335;DHT22;69435;52.670;13.544;2023-10-08T07:28:48;22.90;53.90
21335;DHT22;69435;52.670;13.544;2023-10-08T07:31:38;23.50;52.00
21335;DHT22;69435;52.670;13.544;2023-10-08T07:34:27;24.00;49.50
21335;DHT22;69435;52.670;13.544;2023-10-08T07:37:17;24.40;47.20
21335;DHT22;69435;52.670;13.544;2023-10-08T07:40:03;24.80;46.40
21335;DHT22;69435;52.670;13.544;2023-10-08T07:42:54;25.10;45.50
21335;DHT22;69435;52.670;13.544;2023-10-08T07:45:40;25.40;44.00
21335;DHT22;69435;52.670;13.544;2023-10-08T07:48:31;25.70;42.20
21335;DHT22;69435;52.670;13.544;2023-10-08T07:51:17;26.00;39.80
21335;DHT22;69435;52.670;13.544;2023-10-08T07:54:09;26.20;40.80
21335;DHT22;69435;52.670;13.544;2023-10-08T07:57:02;26.40;40.60
21335;DHT22;69435;52.670;13.544;2023-10-08T07:59:54;26.70;38.50
21335;DHT22;69435;52.670;13.544;2023-10-08T08:02:40;26.90;37.70
21335;DHT22;69435;52.670;13.544;2023-10-08T08:05:27;27.00;37.40
21335;DHT22;69435;52.670;13.544;2023-10-08T08:08:14;27.10;37.50
21335;DHT22;69435;52.670;13.544;2023-10-08T08:11:04;27.20;36.60
21335;DHT22;69435;52.670;13.544;2023-10-08T08:13:52;27.20;36.80
21335;DHT22;69435;52.670;13.544;2023-10-08T08:16:38;27.20;37.00
21335;DHT22;69435;52.670;13.544;2023-10-08T08:19:24;27.40;37.20
21335;DHT22;69435;52.670;13.544;2023-10-08T08:22:10;27.60;37.60
21335;DHT22;69435;52.670;13.544;2023-10-08T08:25:24;27.70;34.60
21335;DHT22;69435;52.670;13.544;2023-10-08T08:28:19;27.70;35.10
21335;DHT22;69435;52.670;13.544;2023-10-08T08:31:06;27.70;34.80
21335;DHT22;69435;52.670;13.544;2023-10-08T08:33:59;27.70;33.40
21335;DHT22;69435;52.670;13.544;2023-10-08T08:36:59;27.70;33.00
21335;DHT22;69435;52.670;13.544;2023-10-08T08:39:46;27.70;29.60
21335;DHT22;69435;52.670;13.544;2023-10-08T08:42:33;27.70;31.60
21335;DHT22;69435;52.670;13.544;2023-10-08T08:45:23;27.70;33.20
21335;DHT22;69435;52.670;13.544;2023-10-08T08:48:12;27.90;32.90
21335;DHT22;69435;52.670;13.544;2023-10-08T08:51:00;28.00;33.30
21335;DHT22;69435;52.670;13.544;2023-10-08T08:53:47;28.20;31.50
21335;DHT22;69435;52.670;13.544;2023-10-08T08:56:41;28.30;32.00
21335;DHT22;69435;52.670;13.544;2023-10-08T08:59:29;28.50;31.90
21335;DHT22;69435;52.670;13.544;2023-10-08T09:02:16;28.60;30.50
21335;DHT22;69435;52.670;13.544;2023-10-08T09:05:05;28.60;31.40
21335;DHT22;69435;52.670;13.544;2023-10-08T09:08:01;28.60;31.60
21335;DHT22;69435;52.670;13.544;2023-10-08T09:10:51;28.70;31.20
21335;DHT22;69435;52.670;13.544;2023-10-08T09:13:37;28.80;30.60
21335;DHT22;69435;52.670;13.544;2023-10-08T09:16:23;28.80;30.40
21335;DHT22;69435;52.670;13.544;2023-10-08T09:19:10;28.80;26.80
21335;DHT22;69435;52.670;13.544;2023-10-08T09:22:09;28.80;26.50
21335;DHT22;69435;52.670;13.544;2023-10-08T09:24:57;28.60;27.10
21335;DHT22;69435;52.670;13.544;2023-10-08T09:27:50;28.40;28.70
21335;DHT22;69435;52.670;13.544;2023-10-08T09:30:42;28.20;29.70
21335;DHT22;69435;52.670;13.544;2023-10-08T09:33:30;28.20;29.80
21335;DHT22;69435;52.670;13.544;2023-10-08T09:36:16;28.10;29.50
21335;DHT22;69435;52.670;13.544;2023-10-08T09:39:04;28.00;30.90
21335;DHT22;69435;52.670;13.544;2023-10-08T09:41:54;28.10;29.90
21335;DHT22;69435;52.670;13.544;2023-10-08T09:44:40;28.20;29.50
21335;DHT22;69435;52.670;13.544;2023-10-08T09:47:29;28.20;29.60
21335;DHT22;69435;52.670;13.544;2023-10-08T09:50:17;28.20;27.30
21335;DHT22;69435;52.670;13.544;2023-10-08T09:53:12;28.10;26.50
21335;DHT22;69435;52.670;13.544;2023-10-08T09:56:13;27.90;27.20
21335;DHT22;69435;52.670;13.544;2023-10-08T09:59:01;27.60;24.40
21335;DHT22;69435;52.670;13.544;2023-10-08T10:01:47;27.30;26.30
21335;DHT22;69435;52.670;13.544;2023-10-08T10:04:34;26.90;25.20
21335;DHT22;69435;52.670;13.544;2023-10-08T10:07:21;26.70;26.50
21335;DHT22;69435;52.670;13.544;2023-10-08T10:10:25;26.40;27.00
21335;DHT22;69435;52.670;13.544;2023-10-08T10:13:27;26.30;28.20
21335;DHT22;69435;52.670;13.544;2023-10-08T10:16:21;26.10;27.20
21335;DHT22;69435;52.670;13.544;2023-10-08T10:19:17;25.80;26.60
21335;DHT22;69435;52.670;13.544;2023-10-08T10:22:10;25.50;28.70
21335;DHT22;69435;52.670;13.544;2023-10-08T10:24:57;25.20;29.40
21335;DHT22;69435;52.670;13.544;2023-10-08T10:30:41;24.80;30.90
21335;DHT22;69435;52.670;13.544;2023-10-08T10:33:32;24.60;30.90
21335;DHT22;69435;52.670;13.544;2023-10-08T10:36:26;24.50;28.90
21335;DHT22;69435;52.670;13.544;2023-10-08T10:39:12;24.40;30.10
21335;DHT22;69435;52.670;13.544;2023-10-08T10:42:11;24.30;29.30
21335;DHT22;69435;52.670;13.544;2023-10-08T10:45:07;24.20;29.50
21335;DHT22;69435;52.670;13.544;2023-10-08T10:48:20;24.10;31.20
21335;DHT22;69435;52.670;13.544;2023-10-08T10:51:05;23.90;30.30
21335;DHT22;69435;52.670;13.544;2023-10-08T10:53:52;23.70;29.00
21335;DHT22;69435;52.670;13.544;2023-10-08T10:56:57;23.50;30.00
21335;DHT22;69435;52.670;13.544;2023-10-08T10:59:50;23.40;30.10
21335;DHT22;69435;52.670;13.544;2023-10-08T11:02:40;23.30;31.10
21335;DHT22;69435;52.670;13.544;2023-10-08T11:05:35;23.20;30.30
21335;DHT22;69435;52.670;13.544;2023-10-08T11:08:25;23.10;29.30
21335;DHT22;69435;52.670;13.544;2023-10-08T11:11:26;22.90;28.80
21335;DHT22;69435;52.670;13.544;2023-10-08T11:14:13;22.70;29.70
21335;DHT22;69435;52.670;13.544;2023-10-08T11:17:11;22.40;29.70
21335;DHT22;69435;52.670;13.544;2023-10-08T11:20:01;22.30;30.20
21335;DHT22;69435;52.670;13.544;2023-10-08T11:22:53;22.10;29.80
21335;DHT22;69435;52.670;13.544;2023-10-08T11:25:39;22.00;30.00
21335;DHT22;69435;52.670;13.544;2023-10-08T11:28:37;21.90;30.80
21335;DHT22;69435;52.670;13.544;2023-10-08T11:31:28;21.80;30.80
21335;DHT22;69435;52.670;13.544;2023-10-08T11:34:14;21.70;31.20
21335;DHT22;69435;52.670;13.544;2023-10-08T11:37:00;21.60;30.10
21335;DHT22;69435;52.670;13.544;2023-10-08T11:39:49;21.40;29.70
21335;DHT22;69435;52.670;13.544;2023-10-08T11:42:38;21.10;30.90
21335;DHT22;69435;52.670;13.544;2023-10-08T11:45:27;21.00;29.90
21335;DHT22;69435;52.670;13.544;2023-10-08T11:48:16;20.90;30.90
21335;DHT22;69435;52.670;13.544;2023-10-08T11:51:14;20.80;30.30
21335;DHT22;69435;52.670;13.544;2023-10-08T11:54:03;20.90;31.20
21335;DHT22;69435;52.670;13.544;2023-10-08T11:56:58;20.90;30.80
21335;DHT22;69435;52.670;13.544;2023-10-08T11:59:48;20.90;31.30
21335;DHT22;69435;52.670;13.544;2023-10-08T12:02:34;21.00;30.60
21335;DHT22;69435;52.670;13.544;2023-10-08T12:05:21;21.00;30.20
21335;DHT22;69435;52.670;13.544;2023-10-08T12:08:10;21.00;29.40
21335;DHT22;69435;52.670;13.544;2023-10-08T12:10:57;21.00;30.90
21335;DHT22;69435;52.670;13.544;2023-10-08T12:13:46;21.10;31.00
21335;DHT22;69435;52.670;13.544;2023-10-08T12:16:32;21.10;30.60
21335;DHT22;69435;52.670;13.544;2023-10-08T12:19:21;21.00;29.20
21335;DHT22;69435;52.670;13.544;2023-10-08T12:22:08;20.90;29.00
21335;DHT22;69435;52.670;13.544;2023-10-08T12:24:54;20.90;29.10
21335;DHT22;69435;52.670;13.544;2023-10-08T12:27:40;20.80;30.00
21335;DHT22;69435;52.670;13.544;2023-10-08T12:30:26;20.80;31.10
21335;DHT22;69435;52.670;13.544;2023-10-08T12:33:16;20.70;30.90
21335;DHT22;69435;52.670;13.544;2023-10-08T12:36:02;20.70;31.40
21335;DHT22;69435;52.670;13.544;2023-10-08T12:38:56;20.60;31.00
21335;DHT22;69435;52.670;13.544;2023-10-08T12:41:45;20.60;32.00
21335;DHT22;69435;52.670;13.544;2023-10-08T12:44:31;20.60;31.20
21335;DHT22;69435;52.670;13.544;2023-10-08T12:47:19;20.50;31.60
21335;DHT22;69435;52.670;13.544;2023-10-08T12:50:05;20.40;30.80
21335;DHT22;69435;52.670;13.544;2023-10-08T12:52:53;20.40;30.50
21335;DHT22;69435;52.670;13.544;2023-10-08T12:55:41;20.30;31.20
21335;DHT22;69435;52.670;13.544;2023-10-08T12:58:26;20.30;32.10
21335;DHT22;69435;52.670;13.544;2023-10-08T13:01:16;20.20;31.40
21335;DHT22;69435;52.670;13.544;2023-10-08T13:04:05;20.10;30.80
21335;DHT22;69435;52.670;13.544;2023-10-08T13:07:01;20.10;32.00
21335;DHT22;69435;52.670;13.544;2023-10-08T13:09:48;20.00;30.60
21335;DHT22;69435;52.670;13.544;2023-10-08T13:12:35;19.90;31.30
21335;DHT22;69435;52.670;13.544;2023-10-08T13:15:23;19.70;31.60
21335;DHT22;69435;52.670;13.544;2023-10-08T13:18:11;19.60;31.70
21335;DHT22;69435;52.670;13.544;2023-10-08T13:20:57;19.60;31.30
21335;DHT22;69435;52.670;13.544;2023-10-08T13:23:43;19.60;32.10
21335;DHT22;69435;52.670;13.544;2023-10-08T13:26:30;19.50;30.80
21335;DHT22;69435;52.670;13.544;2023-10-08T13:29:19;19.50;30.90
21335;DHT22;69435;52.670;13.544;2023-10-08T13:32:05;19.50;31.30
21335;DHT22;69435;52.670;13.544;2023-10-08T13:34:51;19.40;31.20
21335;DHT22;69435;52.670;13.544;2023-10-08T13:37:37;19.40;31.40
21335;DHT22;69435;52.670;13.544;2023-10-08T13:40:23;19.20;31.40
21335;DHT22;69435;52.670;13.544;2023-10-08T13:43:18;19.00;32.20
21335;DHT22;69435;52.670;13.544;2023-10-08T13:46:08;18.90;33.00
21335;DHT22;69435;52.670;13.544;2023-10-08T13:48:58;18.80;33.20
21335;DHT22;69435;52.670;13.544;2023-10-08T13:51:47;18.60;32.90
21335;DHT22;69435;52.670;13.544;2023-10-08T13:54:41;18.40;33.80
21335;DHT22;69435;52.670;13.544;2023-10-08T13:57:32;18.40;33.90
21335;DHT22;69435;52.670;13.544;2023-10-08T14:00:18;18.20;34.00
21335;DHT22;69435;52.670;13.544;2023-10-08T14:03:11;18.10;33.50
21335;DHT22;69435;52.670;13.544;2023-10-08T14:05:59;18.10;34.40
21335;DHT22;69435;52.670;13.544;2023-10-08T14:08:50;18.00;34.80
21335;DHT22;69435;52.670;13.544;2023-10-08T14:11:40;17.90;35.40
21335;DHT22;69435;52.670;13.544;2023-10-08T14:14:26;17.80;36.00
21335;DHT22;69435;52.670;13.544;2023-10-08T14:17:15;17.70;37.20
21335;DHT22;69435;52.670;13.544;2023-10-08T14:20:01;17.80;37.20
21335;DHT22;69435;52.670;13.544;2023-10-08T14:22:53;17.70;36.50
21335;DHT22;69435;52.670;13.544;2023-10-08T14:25:43;17.80;35.10
21335;DHT22;69435;52.670;13.544;2023-10-08T14:28:30;17.80;34.80
21335;DHT22;69435;52.670;13.544;2023-10-08T14:31:42;17.80;35.50
21335;DHT22;69435;52.670;13.544;2023-10-08T14:34:36;17.80;35.10
21335;DHT22;69435;52.670;13.544;2023-10-08T14:37:40;17.80;34.60
21335;DHT22;69435;52.670;13.544;2023-10-08T14:40:45;17.70;35.60
21335;DHT22;69435;52.670;13.544;2023-10-08T14:43:51;17.70;36.20
21335;DHT22;69435;52.670;13.544;2023-10-08T14:46:37;17.70;35.90
21335;DHT22;69435;52.670;13.544;2023-10-08T14:49:23;17.70;36.40
21335;DHT22;69435;52.670;13.544;2023-10-08T14:52:10;17.70;37.00
21335;DHT22;69435;52.670;13.544;2023-10-08T14:54:57;17.50;37.30
21335;DHT22;69435;52.670;13.544;2023-10-08T14:57:42;17.50;37.00
21335;DHT22;69435;52.670;13.544;2023-10-08T15:00:29;17.50;36.90
21335;DHT22;69435;52.670;13.544;2023-10-08T15:03:17;17.40;36.80
21335;DHT22;69435;52.670;13.544;2023-10-08T15:06:03;17.40;37.90
21335;DHT22;69435;52.670;13.544;2023-10-08T15:08:49;17.30;37.70
21335;DHT22;69435;52.670;13.544;2023-10-08T15:11:35;17.30;37.60
21335;DHT22;69435;52.670;13.544;2023-10-08T15:14:22;17.20;37.50
21335;DHT22;69435;52.670;13.544;2023-10-08T15:17:09;17.10;37.80
21335;DHT22;69435;52.670;13.544;2023-10-08T15:19:55;17.10;38.00
21335;DHT22;69435;52.670;13.544;2023-10-08T15:22:44;17.10;38.50
21335;DHT22;69435;52.670;13.544;2023-10-08T15:25:30;17.00;39.30
21335;DHT22;69435;52.670;13.544;2023-10-08T15:28:16;16.90;39.10
21335;DHT22;69435;52.670;13.544;2023-10-08T15:31:02;16.80;39.40
21335;DHT22;69435;52.670;13.544;2023-10-08T15:33:48;16.80;41.10
21335;DHT22;69435;52.670;13.544;2023-10-08T15:36:34;16.70;42.20
21335;DHT22;69435;52.670;13.544;2023-10-08T15:39:21;16.70;43.20
21335;DHT22;69435;52.670;13.544;2023-10-08T15:42:09;16.60;43.70
21335;DHT22;69435;52.670;13.544;2023-10-08T15:44:55;16.60;44.50
21335;DHT22;69435;52.670;13.544;2023-10-08T15:47:41;16.50;45.10
21335;DHT22;69435;52.670;13.544;2023-10-08T15:50:27;16.50;46.00
21335;DHT22;69435;52.670;13.544;2023-10-08T15:53:18;16.40;46.20
21335;DHT22;69435;52.670;13.544;2023-10-08T15:56:04;16.30;46.90
21335;DHT22;69435;52.670;13.544;2023-10-08T15:58:50;16.30;47.60
21335;DHT22;69435;52.670;13.544;2023-10-08T16:01:36;16.20;47.90
21335;DHT22;69435;52.670;13.544;2023-10-08T16:04:22;16.10;48.70
21335;DHT22;69435;52.670;13.544;2023-10-08T16:07:12;16.00;49.10
21335;DHT22;69435;52.670;13.544;2023-10-08T16:09:58;15.80;49.60
21335;DHT22;69435;52.670;13.544;2023-10-08T16:12:44;15.80;50.10
21335;DHT22;69435;52.670;13.544;2023-10-08T16:15:30;15.70;50.50
21335;DHT22;69435;52.670;13.544;2023-10-08T16:18:16;15.70;51.00
21335;DHT22;69435;52.670;13.544;2023-10-08T16:21:05;15.60;50.50
21335;DHT22;69435;52.670;13.544;2023-10-08T16:23:55;15.50;50.80
21335;DHT22;69435;52.670;13.544;2023-10-08T16:26:43;15.50;51.50
21335;DHT22;69435;52.670;13.544;2023-10-08T16:29:29;15.40;52.00
21335;DHT22;69435;52.670;13.544;2023-10-08T16:32:21;15.40;52.30
21335;DHT22;69435;52.670;13.544;2023-10-08T16:35:08;15.30;52.60
21335;DHT22;69435;52.670;13.544;2023-10-08T16:37:54;15.20;53.10
21335;DHT22;69435;52.670;13.544;2023-10-08T16:40:41;15.10;53.60
21335;DHT22;69435;52.670;13.544;2023-10-08T16:43:27;15.10;54.00
21335;DHT22;69435;52.670;13.544;2023-10-08T16:46:13;15.00;54.20
21335;DHT22;69435;52.670;13.544;2023-10-08T16:48:59;14.90;54.60
21335;DHT22;69435;52.670;13.544;2023-10-08T16:51:45;14.80;55.00
21335;DHT22;69435;52.670;13.544;2023-10-08T16:54:31;14.70;55.30
21335;DHT22;69435;52.670;13.544;2023-10-08T16:57:17;14.70;55.60
21335;DHT22;69435;52.670;13.544;2023-10-08T17:00:03;14.70;55.60
21335;DHT22;69435;52.670;13.544;2023-10-08T17:02:56;14.60;55.70
21335;DHT22;69435;52.670;13.544;2023-10-08T17:05:43;14.60;56.20
21335;DHT22;69435;52.670;13.544;2023-10-08T17:08:29;14.60;56.70
21335;DHT22;69435;52.670;13.544;2023-10-08T17:11:17;14.50;56.90
21335;DHT22;69435;52.670;13.544;2023-10-08T17:14:05;14.50;57.20
21335;DHT22;69435;52.670;13.544;2023-10-08T17:16:51;14.50;57.30
21335;DHT22;69435;52.670;13.544;2023-10-08T17:19:37;14.50;57.70
21335;DHT22;69435;52.670;13.544;2023-10-08T17:22:23;14.50;57.90
21335;DHT22;69435;52.670;13.544;2023-10-08T17:25:10;14.50;58.00
21335;DHT22;69435;52.670;13.544;2023-10-08T17:27:56;14.50;57.70
21335;DHT22;69435;52.670;13.544;2023-10-08T17:30:42;14.50;57.30
21335;DHT22;69435;52.670;13.544;2023-10-08T17:33:29;14.50;56.80
21335;DHT22;69435;52.670;13.544;2023-10-08T17:36:15;14.50;56.40
21335;DHT22;69435;52.670;13.544;2023-10-08T17:39:02;14.50;56.00